Time;durP1;ratioP1;P1;durP2;ratioP2;P2;SDS_P1;SDS_P2;PMS_P1;PMS_P2;Temp;Humidity;BMP_temperature;BMP_pressure;BME280_temperature;BME280_humidity;BME280_pressure;Samples;Min_cycle;Max_cycle;Signal;HPM_P1;HPM_P2
2023/03/24 00:00:44;;;;;;;3.88;3.17;;;17.70;50.40;;;;;;5088002;28;46300;-67
2023/03/24 00:03:11;;;;;;;4.90;3.00;;;17.70;50.50;;;;;;5087946;28;45356;-67
2023/03/24 00:05:39;;;;;;;3.33;2.95;;;17.70;50.50;;;;;;5087858;28;45443;-68
2023/03/24 00:08:07;;;;;;;4.18;3.28;;;17.70;50.50;;;;;;5088111;28;45252;-67
2023/03/24 00:10:35;;;;;;;3.53;2.95;;;17.70;50.40;;;;;;5087755;28;45309;-67
2023/03/24 00:13:02;;;;;;;4.85;3.22;;;17.70;50.50;;;;;;5087740;28;45351;-67
2023/03/24 00:15:30;;;;;;;3.55;2.95;;;17.70;50.50;;;;;;5087800;28;45420;-67
2023/03/24 00:17:57;;;;;;;2.95;2.65;;;17.70;50.50;;;;;;5088071;28;45407;-67
2023/03/24 00:20:25;;;;;;;3.30;2.95;;;17.60;50.50;;;;;;5087539;28;45471;-67
2023/03/24 00:22:58;;;;;;;3.20;2.90;;;17.60;50.50;;;;;;5087570;27;45309;-67
2023/03/24 00:25:27;;;;;;;4.10;2.80;;;17.60;50.50;;;;;;5086602;28;45379;-68
2023/03/24 00:27:56;;;;;;;2.95;2.65;;;17.60;50.50;;;;;;5087696;28;45325;-67
2023/03/24 00:30:24;;;;;;;3.05;2.70;;;17.60;50.50;;;;;;5087321;28;46582;-67
2023/03/24 00:32:51;;;;;;;3.55;2.72;;;17.60;50.60;;;;;;5087353;28;45328;-67
2023/03/24 00:35:18;;;;;;;3.42;2.80;;;17.60;50.50;;;;;;5087680;28;45372;-67
2023/03/24 00:37:45;;;;;;;2.72;2.45;;;17.60;50.60;;;;;;5087581;28;45402;-67
2023/03/24 00:40:18;;;;;;;2.95;2.63;;;17.60;50.60;;;;;;5086993;28;46761;-67
2023/03/24 00:42:45;;;;;;;2.90;2.60;;;17.60;50.60;;;;;;5087368;28;45321;-67
2023/03/24 00:45:15;;;;;;;2.83;2.50;;;17.50;50.50;;;;;;5087470;28;45296;-67
2023/03/24 00:47:43;;;;;;;3.58;2.67;;;17.50;50.60;;;;;;5087398;28;45384;-67
2023/03/24 00:50:13;;;;;;;3.67;2.60;;;17.50;50.60;;;;;;5087075;28;45468;-67
2023/03/24 00:52:43;;;;;;;3.88;2.80;;;17.50;50.70;;;;;;5087268;28;45491;-67
2023/03/24 00:55:12;;;;;;;2.55;2.35;;;17.50;50.70;;;;;;5087245;28;45415;-66
2023/03/24 00:57:40;;;;;;;2.90;2.60;;;17.50;50.70;;;;;;5087365;28;45585;-67
2023/03/24 01:00:13;;;;;;;2.65;2.45;;;17.50;50.70;;;;;;5086935;28;46715;-67
2023/03/24 01:02:42;;;;;;;2.90;2.50;;;17.50;50.70;;;;;;5086947;28;45347;-67
2023/03/24 01:05:09;;;;;;;3.55;2.60;;;17.40;50.70;;;;;;5087102;28;45297;-67
2023/03/24 01:07:35;;;;;;;3.03;2.35;;;17.40;50.80;;;;;;5087314;28;45300;-67
2023/03/24 01:10:02;;;;;;;3.05;2.60;;;17.40;50.80;;;;;;5087081;28;45265;-67
2023/03/24 01:12:31;;;;;;;3.00;2.70;;;17.40;50.80;;;;;;5086986;28;45260;-67
2023/03/24 01:14:58;;;;;;;2.80;2.50;;;17.40;50.80;;;;;;5086948;28;45308;-67
2023/03/24 01:17:25;;;;;;;2.97;2.40;;;17.40;50.80;;;;;;5086967;28;45305;-66
2023/03/24 01:19:53;;;;;;;3.15;2.70;;;17.40;50.80;;;;;;5086636;28;49253;-67
2023/03/24 01:22:20;;;;;;;2.45;2.25;;;17.40;50.90;;;;;;5086613;28;45196;-67
2023/03/24 01:24:47;;;;;;;2.95;2.47;;;17.40;50.90;;;;;;5086433;28;45242;-67
2023/03/24 01:27:14;;;;;;;3.47;2.20;;;17.30;51.00;;;;;;5086644;28;45230;-67
2023/03/24 01:29:41;;;;;;;2.65;2.42;;;17.30;50.80;;;;;;5086476;28;45250;-67
2023/03/24 01:32:08;;;;;;;2.58;2.38;;;17.30;50.90;;;;;;5086580;28;45252;-67
2023/03/24 01:34:34;;;;;;;2.45;2.20;;;17.30;50.90;;;;;;5085869;28;45340;-68
2023/03/24 01:37:03;;;;;;;3.22;2.55;;;17.30;51.00;;;;;;5086710;28;45393;-67
2023/03/24 01:39:30;;;;;;;3.22;2.60;;;17.30;50.90;;;;;;5086370;28;45318;-67
2023/03/24 01:41:57;;;;;;;2.25;2.05;;;17.30;50.90;;;;;;5086248;28;45324;-67
2023/03/24 01:44:28;;;;;;;2.80;2.53;;;17.30;51.00;;;;;;5083850;28;45278;-66
2023/03/24 01:46:55;;;;;;;2.78;2.42;;;17.30;51.00;;;;;;5086387;28;45447;-67
2023/03/24 01:49:22;;;;;;;3.00;2.70;;;17.20;51.50;;;;;;5086257;28;45242;-66
2023/03/24 01:51:50;;;;;;;3.28;2.25;;;17.20;51.00;;;;;;5086244;28;45241;-67
2023/03/24 01:54:19;;;;;;;2.88;2.40;;;17.20;50.90;;;;;;5086290;28;45411;-66
2023/03/24 01:56:47;;;;;;;3.28;2.40;;;17.20;50.90;;;;;;5086495;28;45483;-67
2023/03/24 01:59:23;;;;;;;2.60;2.30;;;17.20;51.00;;;;;;5086090;28;45246;-67
2023/03/24 02:01:51;;;;;;;2.72;2.53;;;17.20;50.90;;;;;;5086002;28;45320;-66
2023/03/24 02:04:17;;;;;;;2.60;2.40;;;17.20;51.00;;;;;;5086132;28;45300;-66
2023/03/24 02:06:44;;;;;;;2.50;2.30;;;17.20;50.90;;;;;;5086130;28;45409;-66
2023/03/24 02:09:13;;;;;;;2.97;2.63;;;17.20;51.00;;;;;;5085867;28;45468;-67
2023/03/24 02:11:41;;;;;;;2.95;2.30;;;17.20;51.00;;;;;;5085961;28;45392;-67
2023/03/24 02:14:08;;;;;;;2.50;2.30;;;17.20;51.10;;;;;;5086208;28;45358;-67
2023/03/24 02:16:46;;;;;;;3.13;2.45;;;17.20;51.10;;;;;;5086199;28;45292;-66
2023/03/24 02:19:37;;;;;;;2.20;2.00;;;17.20;51.10;;;;;;5085804;28;46448;-66
2023/03/24 02:22:36;;;;;;;2.42;2.17;;;17.10;51.00;;;;;;5085840;28;45408;-68
2023/03/24 02:25:41;;;;;;;3.08;2.13;;;17.10;51.00;;;;;;5085546;28;45307;-68
2023/03/24 02:28:19;;;;;;;2.22;2.00;;;17.10;51.10;;;;;;5064949;28;45351;-67
2023/03/24 02:31:05;;;;;;;3.30;2.60;;;17.10;51.10;;;;;;5085600;28;45335;-67
2023/03/24 02:34:11;;;;;;;2.15;2.05;;;17.10;51.00;;;;;;5085837;28;45237;-67
2023/03/24 02:37:20;;;;;;;2.28;2.08;;;17.10;51.70;;;;;;5085768;28;45375;-68
2023/03/24 02:39:55;;;;;;;2.05;1.88;;;17.10;51.10;;;;;;5085851;28;45241;-68
2023/03/24 02:42:26;;;;;;;2.78;2.30;;;17.10;51.10;;;;;;5085482;28;45739;-68
2023/03/24 02:44:57;;;;;;;2.60;2.20;;;17.10;51.10;;;;;;5085470;28;45368;-68
2023/03/24 02:47:25;;;;;;;2.30;2.10;;;17.10;51.20;;;;;;5088142;28;45345;-68
2023/03/24 02:49:56;;;;;;;3.90;2.20;;;17.10;51.10;;;;;;5089413;28;45383;-66
2023/03/24 02:52:24;;;;;;;3.75;2.20;;;17.10;51.70;;;;;;5089013;28;45306;-68
2023/03/24 02:54:55;;;;;;;2.22;2.05;;;17.10;51.00;;;;;;5089015;28;45216;-68
2023/03/24 02:57:23;;;;;;;2.83;1.92;;;17.10;51.00;;;;;;5089155;28;45250;-67
2023/03/24 02:59:51;;;;;;;2.67;1.98;;;17.10;50.90;;;;;;5089371;28;45530;-68
2023/03/24 03:02:19;;;;;;;2.28;2.08;;;17.10;50.90;;;;;;5088819;28;46677;-67
2023/03/24 03:04:48;;;;;;;2.50;2.30;;;17.10;50.90;;;;;;5088950;28;45341;-68
2023/03/24 03:07:15;;;;;;;2.08;1.98;;;17.10;50.80;;;;;;5088853;28;45297;-68
2023/03/24 03:09:46;;;;;;;4.68;1.83;;;17.10;50.80;;;;;;5089158;28;45385;-68
2023/03/24 03:12:15;;;;;;;2.20;2.00;;;17.10;50.80;;;;;;5088693;28;45546;-67
2023/03/24 03:14:43;;;;;;;2.28;1.92;;;17.10;50.80;;;;;;5088798;28;45380;-68
2023/03/24 03:17:13;;;;;;;1.92;1.80;;;17.10;50.90;;;;;;5088781;28;45317;-67
2023/03/24 03:19:40;;;;;;;2.08;1.83;;;17.10;50.80;;;;;;5089023;28;45312;-68
2023/03/24 03:22:10;;;;;;;1.98;1.88;;;17.10;50.80;;;;;;5088545;28;47425;-68
2023/03/24 03:24:39;;;;;;;3.75;2.00;;;17.10;50.80;;;;;;5088271;27;45224;-68
2023/03/24 03:27:08;;;;;;;2.70;2.20;;;17.10;50.80;;;;;;5088465;28;45272;-68
2023/03/24 03:29:38;;;;;;;2.22;2.03;;;17.10;50.80;;;;;;5088797;28;45348;-68
2023/03/24 03:32:06;;;;;;;2.05;1.92;;;17.10;50.80;;;;;;5088311;28;46331;-68
2023/03/24 03:34:37;;;;;;;1.70;1.60;;;17.20;50.80;;;;;;5088425;28;46913;-68
2023/03/24 03:37:05;;;;;;;1.92;1.60;;;17.20;50.80;;;;;;5088341;28;45324;-68
2023/03/24 03:39:33;;;;;;;1.92;1.65;;;17.10;50.70;;;;;;5088724;28;45318;-68
2023/03/24 03:42:00;;;;;;;1.63;1.52;;;17.20;50.70;;;;;;5088187;28;46415;-68
2023/03/24 03:44:26;;;;;;;2.47;1.85;;;17.20;50.70;;;;;;5088364;28;45345;-68
2023/03/24 03:46:55;;;;;;;1.88;1.67;;;17.20;50.70;;;;;;5088169;28;45353;-68
2023/03/24 03:49:21;;;;;;;2.58;2.20;;;17.20;50.70;;;;;;5088586;28;45324;-67
2023/03/24 03:51:50;;;;;;;2.80;1.80;;;17.20;50.70;;;;;;5088095;28;46677;-68
2023/03/24 03:54:17;;;;;;;1.90;1.80;;;17.20;50.70;;;;;;5088056;28;45432;-67
2023/03/24 03:56:43;;;;;;;1.90;1.70;;;17.20;50.70;;;;;;5087575;27;45278;-67
2023/03/24 03:59:22;;;;;;;2.38;1.88;;;17.20;50.70;;;;;;5088412;28;45311;-68
2023/03/24 04:01:49;;;;;;;1.85;1.73;;;17.20;50.70;;;;;;5087827;28;45552;-67
2023/03/24 04:04:25;;;;;;;11.50;1.80;;;17.20;50.70;;;;;;5087878;28;45309;-68
2023/03/24 04:06:56;;;;;;;1.52;1.42;;;17.20;50.70;;;;;;5087986;28;45329;-68
2023/03/24 04:09:32;;;;;;;1.60;1.35;;;17.20;51.30;;;;;;5088043;28;45610;-67
2023/03/24 04:12:11;;;;;;;1.80;1.70;;;17.20;50.70;;;;;;5087773;28;46348;-68
2023/03/24 04:14:56;;;;;;;1.50;1.40;;;17.20;50.80;;;;;;5087836;28;45255;-67
2023/03/24 04:17:30;;;;;;;1.77;1.60;;;17.20;50.80;;;;;;5087835;28;45266;-67
2023/03/24 04:20:04;;;;;;;2.85;1.75;;;17.20;50.90;;;;;;5087939;28;45365;-67
2023/03/24 04:22:37;;;;;;;1.73;1.52;;;17.20;50.90;;;;;;5087558;28;45821;-67
2023/03/24 04:25:08;;;;;;;1.60;1.50;;;17.20;50.80;;;;;;5087312;28;45321;-66
2023/03/24 04:27:38;;;;;;;1.58;1.48;;;17.20;50.90;;;;;;5087440;28;45282;-66
2023/03/24 04:30:10;;;;;;;2.78;1.70;;;17.20;51.00;;;;;;5087778;28;45444;-66
2023/03/24 04:32:41;;;;;;;1.45;1.35;;;17.20;51.00;;;;;;5087347;28;45523;-66
2023/03/24 04:35:13;;;;;;;1.65;1.42;;;17.20;51.10;;;;;;5087540;28;45300;-66
2023/03/24 04:37:39;;;;;;;1.73;1.63;;;17.20;51.10;;;;;;5087407;28;45388;-66
2023/03/24 04:40:09;;;;;;;1.70;1.60;;;17.20;51.10;;;;;;5087650;28;45355;-66
2023/03/24 04:42:37;;;;;;;1.75;1.65;;;17.20;51.10;;;;;;5087236;28;45404;-66
2023/03/24 04:45:04;;;;;;;2.10;1.88;;;17.10;51.10;;;;;;5087324;28;45298;-67
2023/03/24 04:47:32;;;;;;;1.60;1.50;;;17.10;51.10;;;;;;5087230;28;45286;-67
2023/03/24 04:50:02;;;;;;;1.88;1.77;;;17.10;51.20;;;;;;5087455;28;45423;-66
2023/03/24 04:52:30;;;;;;;1.80;1.67;;;17.10;51.20;;;;;;5087099;28;46403;-67
2023/03/24 04:54:57;;;;;;;3.35;1.80;;;17.10;51.20;;;;;;5087119;28;45372;-67
2023/03/24 04:57:23;;;;;;;1.75;1.65;;;17.10;51.30;;;;;;5087086;28;45340;-66
2023/03/24 04:59:51;;;;;;;1.83;1.60;;;17.10;51.40;;;;;;5087411;28;45316;-67
2023/03/24 05:02:18;;;;;;;1.60;1.50;;;17.10;51.40;;;;;;5086903;28;45409;-66
2023/03/24 05:04:45;;;;;;;2.95;1.80;;;17.10;51.40;;;;;;5087043;28;45325;-66
2023/03/24 05:07:14;;;;;;;1.70;1.60;;;17.10;51.50;;;;;;5087306;28;45343;-66
2023/03/24 05:09:42;;;;;;;1.75;1.50;;;17.00;51.40;;;;;;5086137;28;45522;-67
2023/03/24 05:12:09;;;;;;;1.60;1.50;;;17.10;51.50;;;;;;5086837;28;45462;-66
2023/03/24 05:14:36;;;;;;;1.73;1.63;;;17.00;51.40;;;;;;5086789;28;45313;-66
2023/03/24 05:17:02;;;;;;;1.80;1.70;;;17.00;51.40;;;;;;5086989;28;45393;-66
2023/03/24 05:19:29;;;;;;;1.70;1.58;;;17.00;51.40;;;;;;5087021;28;45301;-66
2023/03/24 05:21:56;;;;;;;1.60;1.50;;;17.00;51.40;;;;;;5086561;28;45491;-67
2023/03/24 05:24:23;;;;;;;1.90;1.65;;;17.00;51.30;;;;;;5086213;28;45621;-67
2023/03/24 05:26:51;;;;;;;1.83;1.73;;;17.00;51.30;;;;;;5086656;28;45313;-67
2023/03/24 05:29:18;;;;;;;4.15;1.95;;;17.00;51.40;;;;;;5086862;28;45185;-66
2023/03/24 05:31:45;;;;;;;1.50;1.40;;;17.00;52.00;;;;;;5086396;28;46426;-66
2023/03/24 05:34:12;;;;;;;1.70;1.60;;;17.00;51.40;;;;;;5086546;28;45401;-66
2023/03/24 05:36:38;;;;;;;1.83;1.40;;;17.00;51.40;;;;;;5086570;28;45322;-67
2023/03/24 05:39:05;;;;;;;1.70;1.60;;;17.00;51.30;;;;;;5086715;28;45206;-66
2023/03/24 05:41:32;;;;;;;1.23;1.13;;;17.00;51.40;;;;;;5086098;28;45317;-66
2023/03/24 05:44:00;;;;;;;1.63;1.52;;;17.00;51.50;;;;;;5086208;28;45253;-66
2023/03/24 05:46:27;;;;;;;1.52;1.42;;;17.00;51.40;;;;;;5086398;28;45292;-66
2023/03/24 05:48:54;;;;;;;1.50;1.40;;;17.00;51.50;;;;;;5086573;28;45369;-67
2023/03/24 05:51:21;;;;;;;1.60;1.50;;;17.00;51.60;;;;;;5086061;28;47124;-66
2023/03/24 05:53:48;;;;;;;1.77;1.65;;;17.00;51.70;;;;;;5086293;28;45304;-67
2023/03/24 05:56:14;;;;;;;1.83;1.40;;;17.00;51.50;;;;;;5086391;28;45322;-66
2023/03/24 05:58:43;;;;;;;2.15;1.60;;;17.00;51.60;;;;;;5086399;28;45312;-66
2023/03/24 06:01:12;;;;;;;1.50;1.40;;;17.00;51.50;;;;;;5086138;28;45392;-66
2023/03/24 06:03:39;;;;;;;1.90;1.73;;;17.00;51.60;;;;;;5086078;28;45440;-66
2023/03/24 06:06:07;;;;;;;3.22;1.58;;;17.00;51.50;;;;;;5086034;28;45281;-66
2023/03/24 06:08:34;;;;;;;2.15;1.50;;;16.90;51.50;;;;;;5086264;28;45464;-66
2023/03/24 06:11:01;;;;;;;1.60;1.50;;;17.00;51.50;;;;;;5085914;28;46392;-66
2023/03/24 06:13:28;;;;;;;1.40;1.30;;;17.00;51.50;;;;;;5086002;28;45304;-66
2023/03/24 06:15:57;;;;;;;1.45;1.33;;;16.90;51.50;;;;;;5085908;28;45384;-66
2023/03/24 06:18:26;;;;;;;1.40;1.30;;;16.90;51.60;;;;;;5086069;28;45290;-66
2023/03/24 06:20:55;;;;;;;1.50;1.38;;;16.90;51.50;;;;;;5085413;28;45250;-66
2023/03/24 06:23:22;;;;;;;2.30;1.50;;;16.90;51.60;;;;;;5085879;28;45236;-66
2023/03/24 06:25:49;;;;;;;1.40;1.30;;;16.90;52.20;;;;;;5085730;28;45319;-66
2023/03/24 06:28:16;;;;;;;1.67;1.58;;;16.90;51.50;;;;;;5085964;28;45386;-66
2023/03/24 06:30:43;;;;;;;1.55;1.45;;;16.90;51.50;;;;;;5085589;28;46412;-66
2023/03/24 06:33:11;;;;;;;1.90;1.45;;;16.90;51.50;;;;;;5085652;28;45322;-67
2023/03/24 06:35:39;;;;;;;2.08;1.40;;;16.90;51.50;;;;;;5085696;28;45324;-66
2023/03/24 06:38:06;;;;;;;1.50;1.40;;;16.90;51.50;;;;;;5085874;28;45301;-66
2023/03/24 06:40:33;;;;;;;1.48;1.35;;;16.90;51.60;;;;;;5085327;28;46412;-66
2023/03/24 06:42:59;;;;;;;1.60;1.50;;;16.90;51.60;;;;;;5085568;28;45217;-66
2023/03/24 06:45:26;;;;;;;1.77;1.67;;;16.90;51.60;;;;;;5085642;28;45260;-67
2023/03/24 06:47:54;;;;;;;1.83;1.42;;;16.90;51.70;;;;;;5085644;28;45401;-66
2023/03/24 06:50:21;;;;;;;1.88;1.50;;;16.90;51.60;;;;;;5085295;28;46259;-66
2023/03/24 06:52:49;;;;;;;1.58;1.30;;;16.90;51.70;;;;;;5085387;28;45387;-66
2023/03/24 06:55:16;;;;;;;1.80;1.48;;;16.90;51.80;;;;;;5085432;28;45331;-67
2023/03/24 06:57:43;;;;;;;1.63;1.48;;;16.90;51.80;;;;;;5085601;28;45258;-67
2023/03/24 07:00:12;;;;;;;1.65;1.48;;;16.80;51.70;;;;;;5085263;28;45769;-67
2023/03/24 07:02:39;;;;;;;1.52;1.42;;;16.80;51.70;;;;;;5085229;28;45429;-67
2023/03/24 07:05:07;;;;;;;1.45;1.35;;;16.80;51.90;;;;;;5085272;28;45182;-67
2023/03/24 07:07:35;;;;;;;1.58;1.48;;;16.80;51.80;;;;;;5085588;28;45491;-67
2023/03/24 07:10:04;;;;;;;1.48;1.38;;;16.80;51.80;;;;;;5085097;28;45367;-67
2023/03/24 07:12:31;;;;;;;1.00;1.00;;;16.80;51.80;;;;;;5085139;28;45265;-67
2023/03/24 07:14:58;;;;;;;2.45;1.48;;;16.80;51.80;;;;;;5085226;28;45321;-66
2023/03/24 07:17:24;;;;;;;1.50;1.40;;;16.80;52.00;;;;;;5085402;28;45553;-66
2023/03/24 07:19:51;;;;;;;1.40;1.30;;;16.80;51.90;;;;;;5085061;28;46403;-66
2023/03/24 07:22:18;;;;;;;1.55;1.45;;;16.80;51.90;;;;;;5085045;28;45321;-66
2023/03/24 07:24:45;;;;;;;1.58;1.48;;;16.80;52.10;;;;;;5084874;28;45252;-66
2023/03/24 07:27:13;;;;;;;1.67;1.58;;;16.80;51.90;;;;;;5085146;28;45337;-66
2023/03/24 07:29:40;;;;;;;1.58;1.48;;;16.80;52.10;;;;;;5084800;28;45481;-66
2023/03/24 07:32:07;;;;;;;1.42;1.33;;;16.80;51.90;;;;;;5085626;28;45390;-67
2023/03/24 07:34:35;;;;;;;1.58;1.48;;;16.80;51.90;;;;;;5088611;28;45355;-66
2023/03/24 07:37:01;;;;;;;1.10;1.10;;;16.80;52.00;;;;;;5088521;28;45392;-66
2023/03/24 07:39:28;;;;;;;2.08;1.50;;;16.80;52.10;;;;;;5088208;28;45479;-66
2023/03/24 07:41:55;;;;;;;1.45;1.35;;;16.80;52.00;;;;;;5088207;28;45311;-67
2023/03/24 07:44:24;;;;;;;1.27;1.27;;;16.80;51.80;;;;;;5088373;28;45397;-67
2023/03/24 07:46:50;;;;;;;1.40;1.30;;;16.80;51.80;;;;;;5088463;28;45324;-67
2023/03/24 07:49:17;;;;;;;1.73;1.60;;;16.80;51.80;;;;;;5088003;28;45236;-66
2023/03/24 07:51:44;;;;;;;1.52;1.42;;;16.80;51.80;;;;;;5088357;28;45246;-66
2023/03/24 07:54:11;;;;;;;1.58;1.48;;;16.80;52.00;;;;;;5088356;28;45387;-66
2023/03/24 07:56:38;;;;;;;1.40;1.30;;;16.80;52.00;;;;;;5088106;28;45376;-66
2023/03/24 07:59:04;;;;;;;1.35;1.25;;;16.80;52.00;;;;;;5087889;28;45337;-66
2023/03/24 08:01:35;;;;;;;1.60;1.50;;;16.80;51.90;;;;;;5087838;28;45258;-67
2023/03/24 08:04:02;;;;;;;1.52;1.35;;;16.80;52.00;;;;;;5088061;28;45343;-66
2023/03/24 08:06:29;;;;;;;1.20;1.20;;;16.80;52.00;;;;;;5088115;28;45380;-67
2023/03/24 08:08:56;;;;;;;1.48;1.38;;;16.80;52.00;;;;;;5087626;28;46615;-66
2023/03/24 08:11:23;;;;;;;1.48;1.38;;;16.80;52.00;;;;;;5087747;28;45321;-67
2023/03/24 08:13:49;;;;;;;1.75;1.65;;;16.80;52.20;;;;;;5087899;28;45332;-67
2023/03/24 08:16:16;;;;;;;1.75;1.50;;;16.80;52.10;;;;;;5087895;28;45335;-67
2023/03/24 08:18:45;;;;;;;1.70;1.60;;;16.80;52.00;;;;;;5087611;28;46669;-67
2023/03/24 08:21:11;;;;;;;2.38;1.67;;;16.80;52.00;;;;;;5087694;28;45339;-67
2023/03/24 08:23:38;;;;;;;2.10;1.45;;;16.80;51.90;;;;;;5087721;28;45324;-66
2023/03/24 08:26:06;;;;;;;1.83;1.15;;;16.80;51.90;;;;;;5087682;27;45548;-67
2023/03/24 08:28:32;;;;;;;1.83;1.48;;;16.80;51.90;;;;;;5087268;28;46684;-67
2023/03/24 08:30:59;;;;;;;1.42;1.30;;;16.80;52.00;;;;;;5084840;28;45460;-67
2023/03/24 08:33:26;;;;;;;1.85;1.60;;;16.80;52.10;;;;;;5087600;28;45326;-67
2023/03/24 08:35:56;;;;;;;1.90;1.30;;;16.80;52.00;;;;;;5087533;28;45323;-67
2023/03/24 08:38:29;;;;;;;2.85;1.45;;;16.80;52.00;;;;;;5087216;28;45372;-67
2023/03/24 08:40:57;;;;;;;1.70;1.60;;;16.80;52.00;;;;;;5087211;28;45372;-67
2023/03/24 08:43:24;;;;;;;2.47;1.52;;;16.80;52.10;;;;;;5087472;27;45280;-67
2023/03/24 08:45:51;;;;;;;1.45;1.35;;;16.90;52.10;;;;;;5087478;28;45340;-67
2023/03/24 08:48:18;;;;;;;2.63;1.40;;;16.90;52.10;;;;;;5087011;28;46541;-66
2023/03/24 08:50:44;;;;;;;1.50;1.40;;;16.90;52.10;;;;;;5087130;28;45214;-66
2023/03/24 08:53:13;;;;;;;1.42;1.33;;;16.90;52.10;;;;;;5087397;28;45407;-67
2023/03/24 08:55:42;;;;;;;1.60;1.50;;;16.90;52.00;;;;;;5087333;28;45330;-67
2023/03/24 08:58:09;;;;;;;2.03;1.50;;;16.90;52.00;;;;;;5086938;28;45814;-66
2023/03/24 09:00:36;;;;;;;1.40;1.30;;;16.90;52.00;;;;;;5087110;28;45143;-67
2023/03/24 09:03:05;;;;;;;1.35;1.25;;;16.90;52.10;;;;;;5087182;28;45358;-67
2023/03/24 09:05:32;;;;;;;2.17;1.70;;;16.90;52.10;;;;;;5087206;28;45578;-67
2023/03/24 09:08:00;;;;;;;1.67;1.58;;;16.90;52.00;;;;;;5086713;28;45426;-67
2023/03/24 09:10:28;;;;;;;1.38;1.30;;;16.90;52.10;;;;;;5086820;28;45415;-67
2023/03/24 09:12:55;;;;;;;1.52;1.42;;;16.90;52.00;;;;;;5086918;28;45294;-67
2023/03/24 09:15:22;;;;;;;1.73;1.42;;;16.90;52.10;;;;;;5086907;28;45452;-67
2023/03/24 09:17:48;;;;;;;1.50;1.40;;;16.90;52.10;;;;;;5086617;28;45260;-67
2023/03/24 09:20:17;;;;;;;1.58;1.45;;;16.90;52.10;;;;;;5086808;28;45328;-67
2023/03/24 09:22:45;;;;;;;1.35;1.25;;;16.90;52.10;;;;;;5086745;28;45322;-67
2023/03/24 09:25:13;;;;;;;1.70;1.52;;;16.90;52.10;;;;;;5086676;28;45404;-67
2023/03/24 09:27:41;;;;;;;1.50;1.40;;;16.90;52.10;;;;;;5086447;28;46464;-66
2023/03/24 09:30:09;;;;;;;1.70;1.60;;;16.90;52.00;;;;;;5086474;28;45222;-67
2023/03/24 09:32:36;;;;;;;1.38;1.27;;;16.90;52.10;;;;;;5086636;28;45312;-67
2023/03/24 09:35:03;;;;;;;1.52;1.42;;;16.90;52.00;;;;;;5086773;28;45249;-67
2023/03/24 09:37:30;;;;;;;1.88;1.70;;;16.90;52.00;;;;;;5086181;28;45428;-67
2023/03/24 09:39:57;;;;;;;1.50;1.40;;;16.90;52.70;;;;;;5086312;28;45260;-67
2023/03/24 09:42:25;;;;;;;1.55;1.45;;;16.90;52.20;;;;;;5086536;28;45220;-67
2023/03/24 09:44:54;;;;;;;3.25;1.80;;;16.90;52.30;;;;;;5086687;28;45354;-67
2023/03/24 09:47:29;;;;;;;1.83;1.73;;;16.90;52.10;;;;;;5085928;28;46774;-67
2023/03/24 09:49:57;;;;;;;1.65;1.52;;;16.90;52.10;;;;;;5086252;28;45273;-67
2023/03/24 09:52:27;;;;;;;1.83;1.70;;;16.90;52.00;;;;;;5086216;28;45250;-67
2023/03/24 09:54:55;;;;;;;1.98;1.80;;;16.90;52.00;;;;;;5085968;28;45184;-67
2023/03/24 09:57:23;;;;;;;3.55;2.05;;;16.90;52.00;;;;;;5085950;28;45740;-67
2023/03/24 09:59:50;;;;;;;2.65;2.08;;;16.90;52.00;;;;;;5086701;28;45276;-67
2023/03/24 10:02:19;;;;;;;1.90;1.80;;;16.90;52.00;;;;;;5086535;28;45316;-67
2023/03/24 10:04:46;;;;;;;3.00;2.20;;;16.90;52.10;;;;;;5084053;28;45335;-67
2023/03/24 10:07:16;;;;;;;2.03;1.92;;;16.90;52.20;;;;;;5085799;28;46384;-67
2023/03/24 10:09:43;;;;;;;2.13;1.90;;;16.90;52.20;;;;;;5085901;28;45187;-67
2023/03/24 10:12:25;;;;;;;2.17;1.98;;;16.90;52.20;;;;;;5086133;28;45339;-66
2023/03/24 10:14:56;;;;;;;1.85;1.75;;;16.90;52.20;;;;;;5086330;28;45330;-66
2023/03/24 10:17:29;;;;;;;2.10;1.90;;;16.90;52.20;;;;;;5085593;28;45604;-66
2023/03/24 10:19:57;;;;;;;2.38;2.00;;;16.90;52.30;;;;;;5078888;27;45409;-66
2023/03/24 10:22:27;;;;;;;3.08;2.38;;;16.90;52.30;;;;;;5090434;27;45336;-66
2023/03/24 10:24:56;;;;;;;2.63;2.42;;;16.90;52.40;;;;;;5085709;27;45316;-66
2023/03/24 10:27:26;;;;;;;3.70;2.20;;;16.90;52.50;;;;;;5085272;28;46375;-66
2023/03/24 10:29:54;;;;;;;2.80;1.95;;;16.90;52.60;;;;;;5085248;28;45410;-66
2023/03/24 10:32:21;;;;;;;2.42;2.22;;;16.90;52.60;;;;;;5085520;28;45357;-66
2023/03/24 10:34:53;;;;;;;2.75;2.30;;;16.90;52.70;;;;;;5085778;28;45394;-67
2023/03/24 10:37:19;;;;;;;2.10;1.90;;;16.90;52.60;;;;;;5084782;28;47300;-66
2023/03/24 10:39:46;;;;;;;2.40;2.20;;;16.90;52.80;;;;;;5085063;28;45285;-67
2023/03/24 10:42:15;;;;;;;2.20;2.00;;;16.90;52.80;;;;;;5085356;28;45394;-66
2023/03/24 10:44:42;;;;;;;2.17;1.85;;;16.90;52.80;;;;;;5085409;28;45629;-66
2023/03/24 10:47:10;;;;;;;2.33;2.00;;;16.90;52.80;;;;;;5085081;28;45321;-66
2023/03/24 10:49:37;;;;;;;2.60;2.33;;;16.90;52.80;;;;;;5084858;28;45375;-66
2023/03/24 10:52:09;;;;;;;2.78;2.35;;;16.90;52.80;;;;;;5085047;28;45413;-67
2023/03/24 10:54:36;;;;;;;2.47;2.10;;;16.90;52.80;;;;;;5085520;28;45329;-66
2023/03/24 10:57:04;;;;;;;2.53;2.20;;;16.90;52.80;;;;;;5084441;28;45454;-66
2023/03/24 10:59:32;;;;;;;2.80;2.25;;;16.90;52.80;;;;;;5084590;28;45388;-66
2023/03/24 11:01:59;;;;;;;2.50;2.30;;;16.90;52.80;;;;;;5085025;28;45246;-66
2023/03/24 11:04:26;;;;;;;2.30;2.10;;;16.90;52.80;;;;;;5085308;28;45612;-67
2023/03/24 11:07:03;;;;;;;1.70;1.50;;;16.90;53.00;;;;;;5084995;28;46911;-66
2023/03/24 11:09:38;;;;;;;2.25;2.00;;;16.90;52.90;;;;;;5088328;28;45821;-66
2023/03/24 11:12:05;;;;;;;2.08;1.80;;;16.90;52.90;;;;;;5088513;28;45366;-66
2023/03/24 11:14:33;;;;;;;1.80;1.70;;;16.80;53.00;;;;;;5088652;28;45392;-66
2023/03/24 11:17:03;;;;;;;2.00;1.77;;;16.90;53.00;;;;;;5088455;28;48156;-66
2023/03/24 11:19:31;;;;;;;2.40;2.08;;;16.90;53.00;;;;;;5088410;28;45372;-67
2023/03/24 11:21:59;;;;;;;5.13;2.30;;;16.90;53.00;;;;;;5088410;28;45280;-67
2023/03/24 11:24:26;;;;;;;2.70;2.10;;;16.90;53.00;;;;;;5087826;28;45462;-67
2023/03/24 11:26:58;;;;;;;2.63;2.10;;;16.90;52.90;;;;;;5088159;28;45512;-66
2023/03/24 11:29:26;;;;;;;2.45;2.10;;;16.90;52.90;;;;;;5088193;28;45177;-67
2023/03/24 11:31:55;;;;;;;1.95;1.70;;;16.90;53.00;;;;;;5088231;28;45468;-67
2023/03/24 11:34:23;;;;;;;2.65;2.13;;;16.90;53.00;;;;;;5085526;28;45785;-66
2023/03/24 11:36:50;;;;;;;4.70;2.00;;;16.90;52.90;;;;;;5067700;28;45514;-67
2023/03/24 11:39:20;;;;;;;2.63;2.08;;;16.90;53.70;;;;;;5078415;28;45198;-66
2023/03/24 11:42:04;;;;;;;3.10;2.00;;;16.90;53.10;;;;;;5088287;28;45257;-65
2023/03/24 11:44:33;;;;;;;2.67;2.10;;;16.90;53.00;;;;;;5063261;28;45376;-67
2023/03/24 11:47:02;;;;;;;1.90;1.63;;;16.90;53.00;;;;;;5087298;28;46430;-67
2023/03/24 11:49:30;;;;;;;1.70;1.60;;;16.90;53.10;;;;;;5094057;27;45405;-67
2023/03/24 11:51:57;;;;;;;2.38;1.92;;;16.90;53.20;;;;;;5092105;27;45372;-67
2023/03/24 11:54:27;;;;;;;1.63;1.52;;;16.90;53.10;;;;;;5087980;28;45393;-67
2023/03/24 11:56:54;;;;;;;2.05;1.95;;;16.90;53.20;;;;;;5074751;28;45730;-67
2023/03/24 11:59:35;;;;;;;1.77;1.67;;;16.90;53.10;;;;;;5087345;28;45404;-67
2023/03/24 12:02:10;;;;;;;3.15;1.73;;;16.90;53.10;;;;;;5090343;27;45389;-67
2023/03/24 12:04:48;;;;;;;2.10;1.70;;;17.00;53.10;;;;;;5083804;27;45484;-67
2023/03/24 12:08:00;;;;;;;1.67;1.58;;;16.90;53.00;;;;;;5081380;27;45539;-67
2023/03/24 12:10:41;;;;;;;6.57;1.95;;;17.00;53.00;;;;;;5035971;27;45667;-67
2023/03/24 12:13:10;;;;;;;2.72;1.85;;;16.90;53.10;;;;;;5096419;27;45353;-67
2023/03/24 12:15:52;;;;;;;2.35;1.80;;;16.90;53.00;;;;;;5087792;28;45385;-67
2023/03/24 12:18:33;;;;;;;4.30;2.05;;;16.90;53.10;;;;;;5086780;27;45445;-67
2023/03/24 12:21:01;;;;;;;2.83;1.70;;;16.90;53.10;;;;;;5080846;27;45610;-66
2023/03/24 12:23:32;;;;;;;2.63;1.50;;;16.90;53.10;;;;;;5091501;27;45427;-67
2023/03/24 12:26:07;;;;;;;1.83;1.65;;;16.90;53.10;;;;;;5088972;27;45387;-67
2023/03/24 12:28:47;;;;;;;2.00;1.67;;;16.90;53.10;;;;;;5071310;28;46362;-67
2023/03/24 12:31:29;;;;;;;2.55;1.70;;;16.90;53.10;;;;;;5086443;28;45413;-67
2023/03/24 12:34:01;;;;;;;3.45;1.70;;;16.90;53.10;;;;;;5081904;28;45490;-70
2023/03/24 12:36:36;;;;;;;1.88;1.67;;;16.90;53.10;;;;;;5070735;28;45307;-72
2023/03/24 12:39:08;;;;;;;1.90;1.25;;;16.90;53.20;;;;;;5087842;28;46433;-72
2023/03/24 12:42:14;;;;;;;2.78;1.77;;;16.90;53.30;;;;;;5087340;28;45497;-73
2023/03/24 12:45:04;;;;;;;2.05;1.70;;;16.90;53.30;;;;;;5068605;28;45453;-66
2023/03/24 12:47:53;;;;;;;5.50;1.70;;;16.90;53.50;;;;;;5086868;28;45364;-74
2023/03/24 12:50:29;;;;;;;3.47;1.50;;;16.90;53.60;;;;;;5095782;28;45353;-71
2023/03/24 12:53:03;;;;;;;1.52;1.42;;;16.90;53.40;;;;;;5087461;28;45196;-65
2023/03/24 12:55:32;;;;;;;1.83;1.73;;;16.90;53.40;;;;;;5086425;28;45366;-68
2023/03/24 12:58:00;;;;;;;2.72;1.58;;;16.90;53.40;;;;;;5087004;27;45409;-68
2023/03/24 13:00:28;;;;;;;3.95;1.73;;;16.90;53.50;;;;;;5091424;27;45497;-66